sensor_id;sensor_type;location;lat;lon;timestamp;P1;durP1;ratioP1;P2;durP2;ratioP2
21420;SDS011;10871;50.144;8.428;2023-02-12T00:01:46;86.20;;;38.83;;
21420;SDS011;10871;50.144;8.428;2023-02-12T00:04:12;86.25;;;37.38;;
21420;SDS011;10871;50.144;8.428;2023-02-12T00:06:38;81.95;;;36.53;;
21420;SDS011;10871;50.144;8.428;2023-02-12T00:09:05;89.05;;;36.97;;
21420;SDS011;10871;50.144;8.428;2023-02-12T00:11:31;84.38;;;36.03;;
21420;SDS011;10871;50.144;8.428;2023-02-12T00:13:58;76.05;;;34.33;;
21420;SDS011;10871;50.144;8.428;2023-02-12T00:16:25;72.45;;;33.58;;
21420;SDS011;10871;50.144;8.428;2023-02-12T00:18:53;77.97;;;33.70;;
21420;SDS011;10871;50.144;8.428;2023-02-12T00:21:20;76.40;;;33.15;;
21420;SDS011;10871;50.144;8.428;2023-02-12T00:23:46;82.15;;;33.78;;
21420;SDS011;10871;50.144;8.428;2023-02-12T00:26:13;79.78;;;34.75;;
21420;SDS011;10871;50.144;8.428;2023-02-12T00:28:44;81.35;;;33.92;;
21420;SDS011;10871;50.144;8.428;2023-02-12T00:31:12;84.93;;;35.72;;
21420;SDS011;10871;50.144;8.428;2023-02-12T00:33:39;78.05;;;34.78;;
21420;SDS011;10871;50.144;8.428;2023-02-12T00:36:05;86.45;;;35.53;;
21420;SDS011;10871;50.144;8.428;2023-02-12T00:38:32;84.88;;;36.15;;
21420;SDS011;10871;50.144;8.428;2023-02-12T00:40:59;86.65;;;37.45;;
21420;SDS011;10871;50.144;8.428;2023-02-12T00:43:25;93.45;;;37.67;;
21420;SDS011;10871;50.144;8.428;2023-02-12T00:45:52;93.75;;;37.63;;
21420;SDS011;10871;50.144;8.428;2023-02-12T00:48:19;98.45;;;38.05;;
21420;SDS011;10871;50.144;8.428;2023-02-12T00:50:45;101.10;;;38.88;;
21420;SDS011;10871;50.144;8.428;2023-02-12T00:53:12;106.93;;;40.08;;
21420;SDS011;10871;50.144;8.428;2023-02-12T00:55:39;100.20;;;38.67;;
21420;SDS011;10871;50.144;8.428;2023-02-12T00:58:06;96.53;;;38.17;;
21420;SDS011;10871;50.144;8.428;2023-02-12T01:00:32;105.60;;;39.42;;
21420;SDS011;10871;50.144;8.428;2023-02-12T01:02:58;95.78;;;36.88;;
21420;SDS011;10871;50.144;8.428;2023-02-12T01:05:25;104.60;;;39.22;;
21420;SDS011;10871;50.144;8.428;2023-02-12T01:07:52;101.68;;;39.42;;
21420;SDS011;10871;50.144;8.428;2023-02-12T01:10:19;100.28;;;39.60;;
21420;SDS011;10871;50.144;8.428;2023-02-12T01:12:46;101.75;;;39.08;;
21420;SDS011;10871;50.144;8.428;2023-02-12T01:15:13;108.88;;;39.78;;
21420;SDS011;10871;50.144;8.428;2023-02-12T01:17:39;108.28;;;41.15;;
21420;SDS011;10871;50.144;8.428;2023-02-12T01:20:07;105.93;;;38.45;;
21420;SDS011;10871;50.144;8.428;2023-02-12T01:22:35;103.93;;;40.00;;
21420;SDS011;10871;50.144;8.428;2023-02-12T01:25:01;99.70;;;38.60;;
21420;SDS011;10871;50.144;8.428;2023-02-12T01:27:28;92.72;;;38.05;;
21420;SDS011;10871;50.144;8.428;2023-02-12T01:29:54;102.45;;;38.28;;
21420;SDS011;10871;50.144;8.428;2023-02-12T01:32:21;95.95;;;38.22;;
21420;SDS011;10871;50.144;8.428;2023-02-12T01:34:47;98.90;;;39.08;;
21420;SDS011;10871;50.144;8.428;2023-02-12T01:37:13;101.97;;;39.92;;
21420;SDS011;10871;50.144;8.428;2023-02-12T01:39:40;96.75;;;37.85;;
21420;SDS011;10871;50.144;8.428;2023-02-12T01:42:09;93.95;;;38.03;;
21420;SDS011;10871;50.144;8.428;2023-02-12T01:44:38;97.60;;;38.90;;
21420;SDS011;10871;50.144;8.428;2023-02-12T01:47:11;99.45;;;38.45;;
21420;SDS011;10871;50.144;8.428;2023-02-12T01:49:41;106.13;;;38.78;;
21420;SDS011;10871;50.144;8.428;2023-02-12T01:52:13;109.20;;;39.20;;
21420;SDS011;10871;50.144;8.428;2023-02-12T01:54:40;105.68;;;37.95;;
21420;SDS011;10871;50.144;8.428;2023-02-12T01:57:07;116.80;;;41.80;;
21420;SDS011;10871;50.144;8.428;2023-02-12T01:59:34;108.35;;;38.58;;
21420;SDS011;10871;50.144;8.428;2023-02-12T02:02:02;104.70;;;38.80;;
21420;SDS011;10871;50.144;8.428;2023-02-12T02:04:29;96.60;;;36.97;;
21420;SDS011;10871;50.144;8.428;2023-02-12T02:06:58;92.50;;;37.28;;
21420;SDS011;10871;50.144;8.428;2023-02-12T02:09:25;98.57;;;38.15;;
21420;SDS011;10871;50.144;8.428;2023-02-12T02:11:53;95.03;;;36.88;;
21420;SDS011;10871;50.144;8.428;2023-02-12T02:14:38;93.45;;;36.72;;
21420;SDS011;10871;50.144;8.428;2023-02-12T02:17:08;104.95;;;39.10;;
21420;SDS011;10871;50.144;8.428;2023-02-12T02:22:36;100.13;;;37.10;;
21420;SDS011;10871;50.144;8.428;2023-02-12T02:30:30;113.70;;;38.35;;
21420;SDS011;10871;50.144;8.428;2023-02-12T02:35:35;109.68;;;37.95;;
21420;SDS011;10871;50.144;8.428;2023-02-12T02:40:52;113.93;;;41.42;;
21420;SDS011;10871;50.144;8.428;2023-02-12T02:43:26;119.03;;;41.25;;
21420;SDS011;10871;50.144;8.428;2023-02-12T02:46:17;114.40;;;40.33;;
21420;SDS011;10871;50.144;8.428;2023-02-12T02:48:41;120.10;;;40.67;;
21420;SDS011;10871;50.144;8.428;2023-02-12T02:51:17;126.18;;;41.33;;
21420;SDS011;10871;50.144;8.428;2023-02-12T02:53:46;114.97;;;40.85;;
21420;SDS011;10871;50.144;8.428;2023-02-12T02:56:14;119.30;;;40.90;;
21420;SDS011;10871;50.144;8.428;2023-02-12T02:58:47;114.43;;;38.92;;
21420;SDS011;10871;50.144;8.428;2023-02-12T03:01:19;108.93;;;38.08;;
21420;SDS011;10871;50.144;8.428;2023-02-12T03:03:51;109.82;;;39.10;;
21420;SDS011;10871;50.144;8.428;2023-02-12T03:06:35;110.88;;;40.25;;
21420;SDS011;10871;50.144;8.428;2023-02-12T03:09:09;104.80;;;38.05;;
21420;SDS011;10871;50.144;8.428;2023-02-12T03:11:37;115.47;;;40.20;;
21420;SDS011;10871;50.144;8.428;2023-02-12T03:14:10;111.32;;;39.28;;
21420;SDS011;10871;50.144;8.428;2023-02-12T03:16:39;104.78;;;38.63;;
21420;SDS011;10871;50.144;8.428;2023-02-12T03:19:16;107.72;;;39.00;;
21420;SDS011;10871;50.144;8.428;2023-02-12T03:21:54;107.38;;;37.70;;
21420;SDS011;10871;50.144;8.428;2023-02-12T03:24:43;122.93;;;39.95;;
21420;SDS011;10871;50.144;8.428;2023-02-12T03:27:18;116.93;;;40.13;;
21420;SDS011;10871;50.144;8.428;2023-02-12T03:29:45;116.38;;;39.05;;
21420;SDS011;10871;50.144;8.428;2023-02-12T03:35:53;103.35;;;37.13;;
21420;SDS011;10871;50.144;8.428;2023-02-12T03:38:01;109.70;;;38.65;;
21420;SDS011;10871;50.144;8.428;2023-02-12T03:43:05;103.82;;;37.28;;
21420;SDS011;10871;50.144;8.428;2023-02-12T03:45:37;102.82;;;39.22;;
21420;SDS011;10871;50.144;8.428;2023-02-12T03:48:10;106.43;;;39.45;;
21420;SDS011;10871;50.144;8.428;2023-02-12T03:50:47;108.72;;;38.65;;
21420;SDS011;10871;50.144;8.428;2023-02-12T03:53:16;100.90;;;37.90;;
21420;SDS011;10871;50.144;8.428;2023-02-12T03:55:44;97.15;;;38.55;;
21420;SDS011;10871;50.144;8.428;2023-02-12T03:58:12;103.95;;;36.83;;
21420;SDS011;10871;50.144;8.428;2023-02-12T04:00:40;104.35;;;39.92;;
21420;SDS011;10871;50.144;8.428;2023-02-12T04:03:07;103.45;;;38.30;;
21420;SDS011;10871;50.144;8.428;2023-02-12T04:05:33;96.43;;;36.85;;
21420;SDS011;10871;50.144;8.428;2023-02-12T04:08:00;102.70;;;37.20;;
21420;SDS011;10871;50.144;8.428;2023-02-12T04:10:29;95.55;;;36.55;;
21420;SDS011;10871;50.144;8.428;2023-02-12T04:13:00;105.13;;;37.90;;
21420;SDS011;10871;50.144;8.428;2023-02-12T04:15:38;105.28;;;37.45;;
21420;SDS011;10871;50.144;8.428;2023-02-12T04:18:11;100.07;;;37.38;;
21420;SDS011;10871;50.144;8.428;2023-02-12T04:26:20;106.20;;;37.17;;
21420;SDS011;10871;50.144;8.428;2023-02-12T04:29:05;101.05;;;37.78;;
21420;SDS011;10871;50.144;8.428;2023-02-12T04:31:52;98.07;;;38.70;;
21420;SDS011;10871;50.144;8.428;2023-02-12T04:34:31;91.22;;;36.72;;
21420;SDS011;10871;50.144;8.428;2023-02-12T04:37:01;101.75;;;37.92;;
21420;SDS011;10871;50.144;8.428;2023-02-12T04:39:30;97.85;;;37.20;;
21420;SDS011;10871;50.144;8.428;2023-02-12T04:42:00;92.45;;;36.13;;
21420;SDS011;10871;50.144;8.428;2023-02-12T04:44:29;99.90;;;36.83;;
21420;SDS011;10871;50.144;8.428;2023-02-12T04:46:56;86.88;;;34.47;;
21420;SDS011;10871;50.144;8.428;2023-02-12T04:49:22;88.63;;;34.33;;
21420;SDS011;10871;50.144;8.428;2023-02-12T04:51:49;87.88;;;33.53;;
21420;SDS011;10871;50.144;8.428;2023-02-12T04:54:16;85.65;;;33.53;;
21420;SDS011;10871;50.144;8.428;2023-02-12T04:56:43;91.82;;;34.78;;
21420;SDS011;10871;50.144;8.428;2023-02-12T04:59:09;93.50;;;35.35;;
21420;SDS011;10871;50.144;8.428;2023-02-12T05:01:36;90.03;;;34.03;;
21420;SDS011;10871;50.144;8.428;2023-02-12T05:04:03;93.22;;;34.67;;
21420;SDS011;10871;50.144;8.428;2023-02-12T05:06:30;89.10;;;33.10;;
21420;SDS011;10871;50.144;8.428;2023-02-12T05:08:56;96.10;;;35.58;;
21420;SDS011;10871;50.144;8.428;2023-02-12T05:11:23;97.60;;;37.30;;
21420;SDS011;10871;50.144;8.428;2023-02-12T05:13:50;93.63;;;35.45;;
21420;SDS011;10871;50.144;8.428;2023-02-12T05:16:16;100.60;;;36.35;;
21420;SDS011;10871;50.144;8.428;2023-02-12T05:18:43;97.53;;;36.40;;
21420;SDS011;10871;50.144;8.428;2023-02-12T05:21:09;95.10;;;36.47;;
21420;SDS011;10871;50.144;8.428;2023-02-12T05:23:37;92.50;;;34.53;;
21420;SDS011;10871;50.144;8.428;2023-02-12T05:26:05;86.57;;;33.88;;
21420;SDS011;10871;50.144;8.428;2023-02-12T05:28:32;89.35;;;34.70;;
21420;SDS011;10871;50.144;8.428;2023-02-12T05:31:02;87.85;;;34.50;;
21420;SDS011;10871;50.144;8.428;2023-02-12T05:33:29;92.68;;;34.63;;
21420;SDS011;10871;50.144;8.428;2023-02-12T05:36:01;89.63;;;34.38;;
21420;SDS011;10871;50.144;8.428;2023-02-12T05:38:28;91.93;;;35.25;;
21420;SDS011;10871;50.144;8.428;2023-02-12T05:40:59;94.15;;;36.05;;
21420;SDS011;10871;50.144;8.428;2023-02-12T05:43:25;93.97;;;37.90;;
21420;SDS011;10871;50.144;8.428;2023-02-12T05:45:52;97.03;;;37.28;;
21420;SDS011;10871;50.144;8.428;2023-02-12T05:48:19;102.07;;;37.28;;
21420;SDS011;10871;50.144;8.428;2023-02-12T05:50:45;103.78;;;37.30;;
21420;SDS011;10871;50.144;8.428;2023-02-12T05:53:11;92.78;;;38.63;;
21420;SDS011;10871;50.144;8.428;2023-02-12T05:55:38;95.88;;;35.42;;
21420;SDS011;10871;50.144;8.428;2023-02-12T05:58:04;93.40;;;37.05;;
21420;SDS011;10871;50.144;8.428;2023-02-12T06:00:30;97.07;;;36.35;;
21420;SDS011;10871;50.144;8.428;2023-02-12T06:02:56;99.15;;;37.88;;
21420;SDS011;10871;50.144;8.428;2023-02-12T06:05:23;95.05;;;36.05;;
21420;SDS011;10871;50.144;8.428;2023-02-12T06:07:49;106.05;;;37.97;;
21420;SDS011;10871;50.144;8.428;2023-02-12T06:10:15;102.55;;;39.53;;
21420;SDS011;10871;50.144;8.428;2023-02-12T06:12:42;97.85;;;38.63;;
21420;SDS011;10871;50.144;8.428;2023-02-12T06:15:08;104.72;;;39.13;;
21420;SDS011;10871;50.144;8.428;2023-02-12T06:17:34;108.07;;;38.35;;
21420;SDS011;10871;50.144;8.428;2023-02-12T06:20:01;111.60;;;39.03;;
21420;SDS011;10871;50.144;8.428;2023-02-12T06:22:27;103.90;;;37.10;;
21420;SDS011;10871;50.144;8.428;2023-02-12T06:24:53;111.57;;;39.10;;
21420;SDS011;10871;50.144;8.428;2023-02-12T06:27:20;101.70;;;37.90;;
21420;SDS011;10871;50.144;8.428;2023-02-12T06:29:46;103.50;;;37.50;;
21420;SDS011;10871;50.144;8.428;2023-02-12T06:32:12;100.45;;;37.45;;
21420;SDS011;10871;50.144;8.428;2023-02-12T06:34:40;103.30;;;38.30;;
21420;SDS011;10871;50.144;8.428;2023-02-12T06:37:06;103.38;;;37.83;;
21420;SDS011;10871;50.144;8.428;2023-02-12T06:39:33;103.07;;;39.30;;
21420;SDS011;10871;50.144;8.428;2023-02-12T06:41:59;105.30;;;38.20;;
21420;SDS011;10871;50.144;8.428;2023-02-12T06:44:25;111.95;;;38.67;;
21420;SDS011;10871;50.144;8.428;2023-02-12T06:46:51;103.55;;;37.28;;
21420;SDS011;10871;50.144;8.428;2023-02-12T06:49:18;111.47;;;38.47;;
21420;SDS011;10871;50.144;8.428;2023-02-12T06:51:45;103.45;;;37.80;;
21420;SDS011;10871;50.144;8.428;2023-02-12T06:54:12;107.25;;;39.45;;
21420;SDS011;10871;50.144;8.428;2023-02-12T06:56:38;106.97;;;39.22;;
21420;SDS011;10871;50.144;8.428;2023-02-12T06:59:05;105.28;;;38.80;;
21420;SDS011;10871;50.144;8.428;2023-02-12T07:01:31;97.03;;;38.53;;
21420;SDS011;10871;50.144;8.428;2023-02-12T07:03:59;95.43;;;37.00;;
21420;SDS011;10871;50.144;8.428;2023-02-12T07:06:26;96.15;;;36.42;;
21420;SDS011;10871;50.144;8.428;2023-02-12T07:08:53;96.35;;;34.85;;
21420;SDS011;10871;50.144;8.428;2023-02-12T07:11:23;82.47;;;34.17;;
21420;SDS011;10871;50.144;8.428;2023-02-12T07:13:50;90.32;;;35.05;;
21420;SDS011;10871;50.144;8.428;2023-02-12T07:16:16;91.03;;;35.70;;
21420;SDS011;10871;50.144;8.428;2023-02-12T07:18:43;102.68;;;38.60;;
21420;SDS011;10871;50.144;8.428;2023-02-12T07:21:10;101.07;;;38.03;;
21420;SDS011;10871;50.144;8.428;2023-02-12T07:23:36;97.28;;;37.40;;
21420;SDS011;10871;50.144;8.428;2023-02-12T07:26:07;95.05;;;37.75;;
21420;SDS011;10871;50.144;8.428;2023-02-12T07:28:34;94.95;;;37.38;;
21420;SDS011;10871;50.144;8.428;2023-02-12T07:33:36;91.05;;;35.47;;
21420;SDS011;10871;50.144;8.428;2023-02-12T07:36:04;99.13;;;38.85;;
21420;SDS011;10871;50.144;8.428;2023-02-12T07:38:30;100.95;;;36.53;;
21420;SDS011;10871;50.144;8.428;2023-02-12T07:41:07;97.65;;;36.30;;
21420;SDS011;10871;50.144;8.428;2023-02-12T07:43:36;93.30;;;35.70;;
21420;SDS011;10871;50.144;8.428;2023-02-12T07:46:06;90.65;;;34.75;;
21420;SDS011;10871;50.144;8.428;2023-02-12T07:48:32;92.57;;;35.53;;
21420;SDS011;10871;50.144;8.428;2023-02-12T07:51:06;81.38;;;35.58;;
21420;SDS011;10871;50.144;8.428;2023-02-12T07:53:33;86.50;;;35.63;;
21420;SDS011;10871;50.144;8.428;2023-02-12T07:58:35;89.75;;;37.25;;
21420;SDS011;10871;50.144;8.428;2023-02-12T08:01:15;87.20;;;36.47;;
21420;SDS011;10871;50.144;8.428;2023-02-12T08:03:42;86.80;;;36.22;;
21420;SDS011;10871;50.144;8.428;2023-02-12T08:06:43;92.68;;;37.90;;
21420;SDS011;10871;50.144;8.428;2023-02-12T08:09:03;81.95;;;36.20;;
21420;SDS011;10871;50.144;8.428;2023-02-12T08:11:30;84.55;;;36.47;;
21420;SDS011;10871;50.144;8.428;2023-02-12T08:13:57;84.93;;;38.10;;
21420;SDS011;10871;50.144;8.428;2023-02-12T08:16:24;110.10;;;44.47;;
21420;SDS011;10871;50.144;8.428;2023-02-12T08:18:51;95.97;;;40.83;;
21420;SDS011;10871;50.144;8.428;2023-02-12T08:21:21;96.75;;;41.35;;
21420;SDS011;10871;50.144;8.428;2023-02-12T08:23:48;84.70;;;37.80;;
21420;SDS011;10871;50.144;8.428;2023-02-12T08:26:18;87.22;;;36.25;;
21420;SDS011;10871;50.144;8.428;2023-02-12T08:28:49;77.63;;;34.88;;
21420;SDS011;10871;50.144;8.428;2023-02-12T08:31:17;76.60;;;33.58;;
21420;SDS011;10871;50.144;8.428;2023-02-12T08:33:46;77.45;;;34.55;;
21420;SDS011;10871;50.144;8.428;2023-02-12T08:36:13;75.95;;;34.15;;
21420;SDS011;10871;50.144;8.428;2023-02-12T08:38:41;73.68;;;34.22;;
21420;SDS011;10871;50.144;8.428;2023-02-12T08:41:08;76.95;;;36.08;;
21420;SDS011;10871;50.144;8.428;2023-02-12T08:43:35;67.53;;;32.70;;
21420;SDS011;10871;50.144;8.428;2023-02-12T08:48:35;62.90;;;29.73;;
21420;SDS011;10871;50.144;8.428;2023-02-12T08:51:03;52.85;;;26.83;;
21420;SDS011;10871;50.144;8.428;2023-02-12T08:53:31;57.97;;;28.15;;
21420;SDS011;10871;50.144;8.428;2023-02-12T08:55:59;55.53;;;27.95;;
21420;SDS011;10871;50.144;8.428;2023-02-12T08:58:30;46.10;;;23.55;;
21420;SDS011;10871;50.144;8.428;2023-02-12T09:00:57;51.10;;;25.05;;
21420;SDS011;10871;50.144;8.428;2023-02-12T09:03:34;51.28;;;24.90;;
21420;SDS011;10871;50.144;8.428;2023-02-12T09:06:04;43.45;;;22.40;;
21420;SDS011;10871;50.144;8.428;2023-02-12T09:08:36;42.58;;;21.27;;
21420;SDS011;10871;50.144;8.428;2023-02-12T09:11:40;44.38;;;22.50;;
21420;SDS011;10871;50.144;8.428;2023-02-12T09:14:38;46.85;;;24.63;;
21420;SDS011;10871;50.144;8.428;2023-02-12T09:17:34;45.78;;;24.15;;
21420;SDS011;10871;50.144;8.428;2023-02-12T09:20:07;51.38;;;24.95;;
21420;SDS011;10871;50.144;8.428;2023-02-12T09:22:40;53.55;;;26.05;;
21420;SDS011;10871;50.144;8.428;2023-02-12T09:25:09;50.72;;;25.02;;
21420;SDS011;10871;50.144;8.428;2023-02-12T09:27:42;51.00;;;24.85;;
21420;SDS011;10871;50.144;8.428;2023-02-12T09:30:17;53.90;;;25.58;;
21420;SDS011;10871;50.144;8.428;2023-02-12T09:33:00;49.25;;;24.55;;
21420;SDS011;10871;50.144;8.428;2023-02-12T09:35:29;57.35;;;28.10;;
21420;SDS011;10871;50.144;8.428;2023-02-12T09:51:04;78.13;;;38.03;;
21420;SDS011;10871;50.144;8.428;2023-02-12T09:54:33;78.15;;;37.03;;
21420;SDS011;10871;50.144;8.428;2023-02-12T09:57:16;87.82;;;40.95;;
21420;SDS011;10871;50.144;8.428;2023-02-12T10:03:57;83.50;;;38.28;;
21420;SDS011;10871;50.144;8.428;2023-02-12T10:10:16;93.70;;;41.30;;
21420;SDS011;10871;50.144;8.428;2023-02-12T10:12:53;91.65;;;40.47;;
21420;SDS011;10871;50.144;8.428;2023-02-12T10:21:07;86.80;;;38.65;;
21420;SDS011;10871;50.144;8.428;2023-02-12T10:28:49;79.28;;;38.70;;
21420;SDS011;10871;50.144;8.428;2023-02-12T10:31:33;90.07;;;38.95;;
21420;SDS011;10871;50.144;8.428;2023-02-12T10:34:20;91.68;;;40.33;;
21420;SDS011;10871;50.144;8.428;2023-02-12T10:37:02;84.60;;;38.83;;
21420;SDS011;10871;50.144;8.428;2023-02-12T10:39:34;88.63;;;39.28;;
21420;SDS011;10871;50.144;8.428;2023-02-12T10:45:03;95.90;;;41.15;;
21420;SDS011;10871;50.144;8.428;2023-02-12T10:47:36;86.28;;;39.30;;
21420;SDS011;10871;50.144;8.428;2023-02-12T10:50:17;93.70;;;41.08;;
21420;SDS011;10871;50.144;8.428;2023-02-12T10:53:23;88.72;;;37.58;;
21420;SDS011;10871;50.144;8.428;2023-02-12T10:58:52;84.50;;;37.25;;
21420;SDS011;10871;50.144;8.428;2023-02-12T11:04:00;88.47;;;38.72;;
21420;SDS011;10871;50.144;8.428;2023-02-12T11:06:57;83.53;;;37.72;;
21420;SDS011;10871;50.144;8.428;2023-02-12T11:09:35;85.57;;;39.55;;
21420;SDS011;10871;50.144;8.428;2023-02-12T11:15:23;86.90;;;38.13;;
21420;SDS011;10871;50.144;8.428;2023-02-12T11:20:38;88.95;;;38.90;;
21420;SDS011;10871;50.144;8.428;2023-02-12T11:31:40;76.30;;;35.95;;
21420;SDS011;10871;50.144;8.428;2023-02-12T11:34:16;74.32;;;34.33;;
21420;SDS011;10871;50.144;8.428;2023-02-12T11:36:51;71.70;;;35.50;;
21420;SDS011;10871;50.144;8.428;2023-02-12T11:39:20;65.60;;;33.47;;
21420;SDS011;10871;50.144;8.428;2023-02-12T11:42:32;67.15;;;34.50;;
21420;SDS011;10871;50.144;8.428;2023-02-12T11:45:01;64.90;;;32.15;;
21420;SDS011;10871;50.144;8.428;2023-02-12T11:47:33;66.28;;;32.92;;
21420;SDS011;10871;50.144;8.428;2023-02-12T11:52:49;66.43;;;32.78;;
21420;SDS011;10871;50.144;8.428;2023-02-12T11:55:23;66.88;;;32.35;;
21420;SDS011;10871;50.144;8.428;2023-02-12T11:58:02;63.58;;;32.50;;
21420;SDS011;10871;50.144;8.428;2023-02-12T12:00:32;60.03;;;31.10;;
21420;SDS011;10871;50.144;8.428;2023-02-12T12:05:30;61.60;;;32.30;;
21420;SDS011;10871;50.144;8.428;2023-02-12T12:08:01;59.20;;;31.27;;
21420;SDS011;10871;50.144;8.428;2023-02-12T12:10:34;60.63;;;30.45;;
21420;SDS011;10871;50.144;8.428;2023-02-12T12:13:03;57.83;;;30.10;;
21420;SDS011;10871;50.144;8.428;2023-02-12T12:15:35;56.50;;;29.85;;
21420;SDS011;10871;50.144;8.428;2023-02-12T12:18:27;57.97;;;30.70;;
21420;SDS011;10871;50.144;8.428;2023-02-12T12:21:35;57.95;;;29.98;;
21420;SDS011;10871;50.144;8.428;2023-02-12T12:24:08;55.75;;;29.38;;
21420;SDS011;10871;50.144;8.428;2023-02-12T12:26:35;54.45;;;28.73;;
21420;SDS011;10871;50.144;8.428;2023-02-12T12:31:59;55.65;;;28.70;;
21420;SDS011;10871;50.144;8.428;2023-02-12T12:34:26;54.67;;;28.55;;
21420;SDS011;10871;50.144;8.428;2023-02-12T12:37:05;50.92;;;29.10;;
21420;SDS011;10871;50.144;8.428;2023-02-12T12:47:18;45.58;;;26.52;;
21420;SDS011;10871;50.144;8.428;2023-02-12T12:57:53;39.53;;;23.77;;
21420;SDS011;10871;50.144;8.428;2023-02-12T13:13:42;35.10;;;21.38;;
21420;SDS011;10871;50.144;8.428;2023-02-12T13:16:15;21.65;;;13.20;;
21420;SDS011;10871;50.144;8.428;2023-02-12T13:18:56;12.40;;;8.55;;
21420;SDS011;10871;50.144;8.428;2023-02-12T13:21:35;1.90;;;1.70;;
21420;SDS011;10871;50.144;8.428;2023-02-12T13:26:48;5.18;;;3.80;;
21420;SDS011;10871;50.144;8.428;2023-02-12T13:29:17;8.32;;;5.70;;
21420;SDS011;10871;50.144;8.428;2023-02-12T13:31:46;7.55;;;4.90;;
21420;SDS011;10871;50.144;8.428;2023-02-12T13:34:14;10.73;;;7.13;;
21420;SDS011;10871;50.144;8.428;2023-02-12T13:36:42;12.23;;;8.05;;
21420;SDS011;10871;50.144;8.428;2023-02-12T13:41:44;10.68;;;6.72;;
21420;SDS011;10871;50.144;8.428;2023-02-12T13:46:55;11.88;;;7.20;;
21420;SDS011;10871;50.144;8.428;2023-02-12T13:49:32;13.75;;;7.80;;
21420;SDS011;10871;50.144;8.428;2023-02-12T13:54:43;9.00;;;6.38;;
21420;SDS011;10871;50.144;8.428;2023-02-12T13:57:14;11.73;;;7.10;;
21420;SDS011;10871;50.144;8.428;2023-02-12T13:59:42;12.85;;;7.28;;
21420;SDS011;10871;50.144;8.428;2023-02-12T14:02:39;12.43;;;7.20;;
21420;SDS011;10871;50.144;8.428;2023-02-12T14:05:14;11.02;;;7.15;;
21420;SDS011;10871;50.144;8.428;2023-02-12T14:07:54;10.32;;;7.13;;
21420;SDS011;10871;50.144;8.428;2023-02-12T14:10:22;10.13;;;7.13;;
21420;SDS011;10871;50.144;8.428;2023-02-12T14:12:50;11.02;;;5.90;;
21420;SDS011;10871;50.144;8.428;2023-02-12T14:17:54;7.30;;;5.85;;
21420;SDS011;10871;50.144;8.428;2023-02-12T14:37:56;11.88;;;7.80;;
21420;SDS011;10871;50.144;8.428;2023-02-12T14:40:44;11.60;;;7.78;;
21420;SDS011;10871;50.144;8.428;2023-02-12T14:43:27;15.60;;;8.98;;
21420;SDS011;10871;50.144;8.428;2023-02-12T14:45:54;16.60;;;10.20;;
21420;SDS011;10871;50.144;8.428;2023-02-12T14:51:26;17.27;;;10.73;;
21420;SDS011;10871;50.144;8.428;2023-02-12T14:54:01;15.98;;;10.00;;
21420;SDS011;10871;50.144;8.428;2023-02-12T14:56:30;16.67;;;9.80;;
21420;SDS011;10871;50.144;8.428;2023-02-12T14:59:08;16.73;;;11.30;;
21420;SDS011;10871;50.144;8.428;2023-02-12T15:01:47;18.58;;;10.88;;
21420;SDS011;10871;50.144;8.428;2023-02-12T15:06:54;16.38;;;10.02;;
21420;SDS011;10871;50.144;8.428;2023-02-12T15:12:04;18.77;;;11.60;;
21420;SDS011;10871;50.144;8.428;2023-02-12T15:14:39;20.23;;;13.23;;
21420;SDS011;10871;50.144;8.428;2023-02-12T15:17:23;26.50;;;15.40;;
21420;SDS011;10871;50.144;8.428;2023-02-12T15:27:53;24.92;;;15.63;;
21420;SDS011;10871;50.144;8.428;2023-02-12T15:30:28;27.63;;;17.27;;
21420;SDS011;10871;50.144;8.428;2023-02-12T15:32:58;28.00;;;16.45;;
21420;SDS011;10871;50.144;8.428;2023-02-12T15:35:29;23.63;;;15.38;;
21420;SDS011;10871;50.144;8.428;2023-02-12T15:37:59;27.77;;;16.70;;
21420;SDS011;10871;50.144;8.428;2023-02-12T15:40:30;27.90;;;17.75;;
21420;SDS011;10871;50.144;8.428;2023-02-12T15:43:04;29.05;;;18.67;;
21420;SDS011;10871;50.144;8.428;2023-02-12T15:45:52;26.23;;;17.25;;
21420;SDS011;10871;50.144;8.428;2023-02-12T15:48:35;31.55;;;20.00;;
21420;SDS011;10871;50.144;8.428;2023-02-12T15:53:45;31.30;;;19.67;;
21420;SDS011;10871;50.144;8.428;2023-02-12T15:56:16;31.13;;;18.80;;
21420;SDS011;10871;50.144;8.428;2023-02-12T15:58:50;32.03;;;18.52;;
21420;SDS011;10871;50.144;8.428;2023-02-12T16:01:19;29.83;;;17.77;;
21420;SDS011;10871;50.144;8.428;2023-02-12T16:10:18;26.55;;;16.08;;
21420;SDS011;10871;50.144;8.428;2023-02-12T16:13:54;24.48;;;15.80;;
21420;SDS011;10871;50.144;8.428;2023-02-12T16:20:22;22.55;;;14.93;;
21420;SDS011;10871;50.144;8.428;2023-02-12T16:22:57;22.63;;;14.68;;
21420;SDS011;10871;50.144;8.428;2023-02-12T16:25:51;26.55;;;15.20;;
21420;SDS011;10871;50.144;8.428;2023-02-12T16:28:36;28.52;;;16.52;;
21420;SDS011;10871;50.144;8.428;2023-02-12T16:32:00;24.38;;;15.07;;
21420;SDS011;10871;50.144;8.428;2023-02-12T16:34:42;26.35;;;15.85;;
21420;SDS011;10871;50.144;8.428;2023-02-12T16:47:52;27.27;;;16.08;;
21420;SDS011;10871;50.144;8.428;2023-02-12T16:50:20;26.15;;;14.93;;
21420;SDS011;10871;50.144;8.428;2023-02-12T16:52:48;26.95;;;16.40;;
21420;SDS011;10871;50.144;8.428;2023-02-12T16:55:24;26.20;;;15.15;;
21420;SDS011;10871;50.144;8.428;2023-02-12T16:57:50;26.75;;;16.05;;
21420;SDS011;10871;50.144;8.428;2023-02-12T17:00:16;29.05;;;15.98;;
21420;SDS011;10871;50.144;8.428;2023-02-12T17:02:43;27.23;;;16.25;;
21420;SDS011;10871;50.144;8.428;2023-02-12T17:05:09;27.30;;;16.42;;
21420;SDS011;10871;50.144;8.428;2023-02-12T17:07:36;26.65;;;15.75;;
21420;SDS011;10871;50.144;8.428;2023-02-12T17:10:02;27.45;;;15.77;;
21420;SDS011;10871;50.144;8.428;2023-02-12T17:12:28;27.30;;;14.95;;
21420;SDS011;10871;50.144;8.428;2023-02-12T17:14:55;26.13;;;15.35;;
21420;SDS011;10871;50.144;8.428;2023-02-12T17:17:21;25.60;;;15.48;;
21420;SDS011;10871;50.144;8.428;2023-02-12T17:19:47;25.05;;;14.50;;
21420;SDS011;10871;50.144;8.428;2023-02-12T17:22:19;25.20;;;14.75;;
21420;SDS011;10871;50.144;8.428;2023-02-12T17:24:46;24.88;;;14.43;;
21420;SDS011;10871;50.144;8.428;2023-02-12T17:27:18;26.98;;;15.68;;
21420;SDS011;10871;50.144;8.428;2023-02-12T17:29:45;30.10;;;15.77;;
21420;SDS011;10871;50.144;8.428;2023-02-12T17:32:11;24.25;;;14.48;;
21420;SDS011;10871;50.144;8.428;2023-02-12T17:34:38;19.63;;;12.82;;
21420;SDS011;10871;50.144;8.428;2023-02-12T17:37:14;20.38;;;12.80;;
21420;SDS011;10871;50.144;8.428;2023-02-12T17:39:40;18.63;;;11.35;;
21420;SDS011;10871;50.144;8.428;2023-02-12T17:42:06;19.88;;;12.13;;
21420;SDS011;10871;50.144;8.428;2023-02-12T17:44:33;22.48;;;13.13;;
21420;SDS011;10871;50.144;8.428;2023-02-12T17:46:59;23.02;;;13.57;;
21420;SDS011;10871;50.144;8.428;2023-02-12T17:49:25;24.58;;;14.13;;
21420;SDS011;10871;50.144;8.428;2023-02-12T17:51:51;25.65;;;14.52;;
21420;SDS011;10871;50.144;8.428;2023-02-12T17:54:18;23.10;;;13.93;;
21420;SDS011;10871;50.144;8.428;2023-02-12T17:56:44;23.50;;;12.88;;
21420;SDS011;10871;50.144;8.428;2023-02-12T17:59:10;20.15;;;12.43;;